createdAt,value
2018-07-04T00:00:43.893Z,7.20
2018-07-04T00:03:23.956Z,7.10
2018-07-04T00:06:04.216Z,8.03
2018-07-04T00:08:44.328Z,7.63
2018-07-04T00:11:24.559Z,8.10
2018-07-04T00:14:04.638Z,7.63
2018-07-04T00:16:44.994Z,7.40
2018-07-04T00:19:25.025Z,7.33
2018-07-04T00:22:05.379Z,8.17
2018-07-04T00:24:45.432Z,8.03
2018-07-04T00:27:25.605Z,7.70
2018-07-04T00:30:05.744Z,8.07
2018-07-04T00:32:46.093Z,7.10
2018-07-04T00:35:26.186Z,7.03
2018-07-04T00:38:06.454Z,7.27
2018-07-04T00:40:46.679Z,7.40
2018-07-04T00:43:26.723Z,8.17
2018-07-04T00:46:06.961Z,7.87
2018-07-04T00:48:47.340Z,9.10
2018-07-04T00:51:27.380Z,8.65
2018-07-04T00:54:07.571Z,8.97
2018-07-04T00:56:47.872Z,7.70
2018-07-04T00:59:28.000Z,8.23
2018-07-04T01:02:08.210Z,7.80
2018-07-04T01:04:48.453Z,8.03
2018-07-04T01:07:28.589Z,7.60
2018-07-04T01:10:08.848Z,7.07
2018-07-04T01:12:49.056Z,7.73
2018-07-04T01:15:29.459Z,8.00
2018-07-04T01:18:09.720Z,7.97
2018-07-04T01:20:55.216Z,8.47
2018-07-04T01:23:35.284Z,8.60
2018-07-04T01:26:15.480Z,8.47
2018-07-04T01:28:55.645Z,7.80
2018-07-04T01:31:35.820Z,8.70
2018-07-04T01:34:15.908Z,8.43
2018-07-04T01:36:56.052Z,8.10
2018-07-04T01:39:36.186Z,8.90
2018-07-04T01:42:16.422Z,8.73
2018-07-04T01:44:56.721Z,8.07
2018-07-04T01:47:36.704Z,8.98
2018-07-04T01:50:17.066Z,8.00
2018-07-04T01:52:57.222Z,8.10
2018-07-04T01:55:37.446Z,9.13
2018-07-04T01:58:17.636Z,8.27
2018-07-04T02:00:57.866Z,8.23
2018-07-04T02:03:37.956Z,9.27
2018-07-04T02:06:18.150Z,9.60
2018-07-04T02:08:58.196Z,8.53
2018-07-04T02:11:38.298Z,8.70
2018-07-04T02:14:18.354Z,9.13
2018-07-04T02:16:58.473Z,9.00
2018-07-04T02:19:38.712Z,8.80
2018-07-04T02:22:18.964Z,9.93
2018-07-04T02:24:59.014Z,10.33
2018-07-04T02:27:39.238Z,9.30
2018-07-04T02:30:19.412Z,8.77
2018-07-04T02:32:59.432Z,9.20
2018-07-04T02:35:39.554Z,8.83
2018-07-04T02:38:19.691Z,10.53
2018-07-04T02:40:59.980Z,9.93
2018-07-04T02:43:40.227Z,10.10
2018-07-04T02:46:50.988Z,9.43
2018-07-04T02:49:30.972Z,9.07
2018-07-04T02:52:11.016Z,9.68
2018-07-04T02:54:51.086Z,11.20
2018-07-04T02:57:31.426Z,10.40
2018-07-04T03:00:11.662Z,10.25
2018-07-04T03:02:51.817Z,9.97
2018-07-04T03:05:32.054Z,9.30
2018-07-04T03:08:12.194Z,9.65
2018-07-04T03:10:52.238Z,9.07
2018-07-04T03:13:32.522Z,9.13
2018-07-04T03:16:12.626Z,9.23
2018-07-04T03:18:52.694Z,9.40
2018-07-04T03:21:32.962Z,8.97
2018-07-04T03:24:13.010Z,8.80
2018-07-04T03:26:53.354Z,9.23
2018-07-04T03:29:33.452Z,8.73
2018-07-04T03:32:13.753Z,8.48
2018-07-04T03:34:54.614Z,8.20
2018-07-04T03:37:34.817Z,8.60
2018-07-04T03:40:14.927Z,8.40
2018-07-04T03:42:55.025Z,7.53
2018-07-04T03:45:35.147Z,7.97
2018-07-04T03:48:15.439Z,8.17
2018-07-04T03:50:55.723Z,8.10
2018-07-04T03:53:35.918Z,8.63
2018-07-04T03:56:16.005Z,8.03
2018-07-04T03:58:56.257Z,8.10
2018-07-04T04:01:36.380Z,7.75
2018-07-04T04:04:16.642Z,7.63
2018-07-04T04:06:56.844Z,8.07
2018-07-04T04:09:37.081Z,9.17
2018-07-04T04:12:17.160Z,8.53
2018-07-04T04:14:57.335Z,8.07
2018-07-04T04:17:37.439Z,8.38
2018-07-04T04:20:17.671Z,9.10
2018-07-04T04:22:57.797Z,8.80
2018-07-04T04:25:37.958Z,9.98
2018-07-04T04:28:18.177Z,9.63
2018-07-04T04:30:58.265Z,8.87
2018-07-04T04:33:38.555Z,10.08
2018-07-04T04:36:18.747Z,9.47
2018-07-04T04:38:58.859Z,9.77
2018-07-04T04:41:38.963Z,10.40
2018-07-04T04:44:19.154Z,9.33
2018-07-04T04:46:59.579Z,7.87
2018-07-04T04:49:39.728Z,8.88
2018-07-04T04:52:20.215Z,8.63
2018-07-04T04:55:00.275Z,8.80
2018-07-04T04:57:40.774Z,8.97
2018-07-04T05:00:20.945Z,8.70
2018-07-04T05:03:01.087Z,8.97
2018-07-04T05:05:41.354Z,8.43
2018-07-04T05:08:21.599Z,8.70
2018-07-04T05:11:01.944Z,9.05
2018-07-04T05:13:42.313Z,8.67
2018-07-04T05:16:22.633Z,8.53
2018-07-04T05:19:02.931Z,9.03
2018-07-04T05:21:43.231Z,7.87
2018-07-04T05:24:23.510Z,8.07
2018-07-04T05:27:03.539Z,7.73
2018-07-04T05:29:43.673Z,7.50
2018-07-04T05:32:23.914Z,8.27
2018-07-04T05:35:04.113Z,7.17
2018-07-04T05:37:44.150Z,7.67
2018-07-04T05:40:24.413Z,7.37
2018-07-04T05:43:04.595Z,7.85
2018-07-04T05:45:44.903Z,7.40
2018-07-04T05:48:26.004Z,7.85
2018-07-04T05:51:06.289Z,7.60
2018-07-04T05:53:46.331Z,8.70
2018-07-04T05:56:26.565Z,7.97
2018-07-04T05:59:06.830Z,8.33
2018-07-04T06:01:46.953Z,8.45
2018-07-04T06:04:27.096Z,8.20
2018-07-04T06:07:07.244Z,8.45
2018-07-04T06:09:47.296Z,8.10
2018-07-04T06:12:27.584Z,8.07
2018-07-04T06:15:07.727Z,7.78
2018-07-04T06:17:48.820Z,8.90
2018-07-04T06:20:28.954Z,8.40
2018-07-04T06:23:09.251Z,8.23
2018-07-04T06:25:49.368Z,8.00
2018-07-04T06:28:29.659Z,8.80
2018-07-04T06:31:10.034Z,8.80
2018-07-04T06:33:51.235Z,7.95
2018-07-04T06:36:31.247Z,7.60
2018-07-04T06:38:59.131Z,7.53
2018-07-04T06:41:27.012Z,6.90
2018-07-04T06:43:54.886Z,6.97
2018-07-04T06:46:22.773Z,6.10
2018-07-04T06:48:50.718Z,7.57
2018-07-04T06:51:18.561Z,7.30
2018-07-04T06:53:46.559Z,6.30
2018-07-04T06:56:14.460Z,7.13
2018-07-04T06:58:42.350Z,6.67
2018-07-04T07:01:10.240Z,6.60
2018-07-04T07:03:50.507Z,5.43
2018-07-04T07:06:30.802Z,6.30
2018-07-04T07:09:11.045Z,6.33
2018-07-04T07:11:51.284Z,5.97
2018-07-04T07:14:31.554Z,6.40
2018-07-04T07:17:11.764Z,5.95
2018-07-04T07:19:52.110Z,6.10
2018-07-04T07:22:32.298Z,6.50
2018-07-04T07:25:12.512Z,6.37
2018-07-04T07:27:52.714Z,5.80
2018-07-04T07:30:32.880Z,6.10
2018-07-04T07:33:13.373Z,5.97
2018-07-04T07:35:53.506Z,5.83
2018-07-04T07:38:33.731Z,6.40
2018-07-04T07:41:13.857Z,5.10
2018-07-04T07:43:54.144Z,5.80
2018-07-04T07:46:34.501Z,5.25
2018-07-04T07:49:14.736Z,5.47
2018-07-04T07:51:54.852Z,5.07
2018-07-04T07:54:35.014Z,5.67
2018-07-04T07:57:15.176Z,5.10
2018-07-04T07:59:55.229Z,4.60
2018-07-04T08:02:35.514Z,4.30
2018-07-04T08:05:15.662Z,3.98
2018-07-04T08:07:55.720Z,4.27
2018-07-04T08:10:36.011Z,4.33
2018-07-04T08:13:16.270Z,4.03
2018-07-04T08:15:56.363Z,4.10
2018-07-04T08:18:36.470Z,4.23
2018-07-04T08:21:16.581Z,4.70
2018-07-04T08:23:56.802Z,4.80
2018-07-04T08:26:36.956Z,4.50
2018-07-04T08:29:17.062Z,4.67
2018-07-04T08:31:57.395Z,4.75
2018-07-04T08:34:37.504Z,3.93
2018-07-04T08:37:17.797Z,3.83
2018-07-04T08:39:57.802Z,3.90
2018-07-04T08:42:38.096Z,4.93
2018-07-04T08:45:18.340Z,4.12
2018-07-04T08:47:58.618Z,4.00
2018-07-04T08:50:38.939Z,3.97
2018-07-04T08:53:19.177Z,3.83
2018-07-04T08:55:59.352Z,3.73
2018-07-04T08:58:39.692Z,4.17
2018-07-04T09:01:19.841Z,4.53
2018-07-04T09:04:00.225Z,4.30
2018-07-04T09:06:40.363Z,3.72
2018-07-04T09:09:20.563Z,3.80
2018-07-04T09:12:00.742Z,3.60
2018-07-04T09:14:41.222Z,4.10
2018-07-04T09:17:21.414Z,4.30
2018-07-04T09:20:01.729Z,3.90
2018-07-04T09:22:41.745Z,4.20
2018-07-04T09:25:22.007Z,4.00
2018-07-04T09:28:02.288Z,3.97
2018-07-04T09:30:42.495Z,4.30
2018-07-04T09:33:22.717Z,4.60
2018-07-04T09:36:02.955Z,4.33
2018-07-04T09:38:43.255Z,3.43
2018-07-04T09:41:24.411Z,5.23
2018-07-04T09:44:04.669Z,4.10
2018-07-04T09:46:44.748Z,4.40
2018-07-04T09:49:25.112Z,3.83
2018-07-04T09:52:05.375Z,3.87
2018-07-04T09:54:45.605Z,4.73
2018-07-04T09:57:25.824Z,5.00
2018-07-04T10:00:06.030Z,4.20
2018-07-04T10:02:46.267Z,3.98
2018-07-04T10:05:26.452Z,3.37
2018-07-04T10:08:06.753Z,5.30
2018-07-04T10:10:46.947Z,4.10
2018-07-04T10:13:27.173Z,4.30
2018-07-04T10:16:07.464Z,3.83
2018-07-04T10:18:47.647Z,4.13
2018-07-04T10:21:27.994Z,3.77
2018-07-04T10:24:08.317Z,3.60
2018-07-04T10:26:48.617Z,4.23
2018-07-04T10:29:29.345Z,4.57
2018-07-04T10:32:10.830Z,3.77
2018-07-04T10:34:51.137Z,4.13
2018-07-04T10:37:31.696Z,4.10
2018-07-04T10:40:12.947Z,3.87
2018-07-04T10:42:53.162Z,3.70
2018-07-04T10:45:33.670Z,3.75
2018-07-04T10:48:13.989Z,3.92
2018-07-04T10:50:54.376Z,3.77
2018-07-04T10:53:34.583Z,3.60
2018-07-04T10:56:15.611Z,3.60
2018-07-04T10:58:55.903Z,3.80
2018-07-04T11:01:36.303Z,3.93
2018-07-04T11:04:16.587Z,4.13
2018-07-04T11:06:56.980Z,3.43
2018-07-04T11:09:37.547Z,3.97
2018-07-04T11:12:17.825Z,4.00
2018-07-04T11:14:58.834Z,4.77
2018-07-04T11:17:39.301Z,4.37
2018-07-04T11:20:20.581Z,4.13
2018-07-04T11:23:00.750Z,4.13
2018-07-04T11:25:40.897Z,4.35
2018-07-04T11:28:21.334Z,3.83
2018-07-04T11:31:01.608Z,3.60
2018-07-04T11:33:41.817Z,4.13
2018-07-04T11:36:22.119Z,3.70
2018-07-04T11:39:02.591Z,3.90
2018-07-04T11:41:42.729Z,4.00
2018-07-04T11:44:23.083Z,4.28
2018-07-04T11:46:51.053Z,4.60
2018-07-04T11:49:18.985Z,3.83
2018-07-04T11:51:48.745Z,4.27
2018-07-04T11:54:16.713Z,4.50
2018-07-04T11:56:44.943Z,4.30
2018-07-04T11:59:12.831Z,4.30
2018-07-04T12:01:40.822Z,4.03
2018-07-04T12:04:21.241Z,3.98
2018-07-04T12:07:01.348Z,4.13
2018-07-04T12:09:29.854Z,4.80
2018-07-04T12:11:58.059Z,5.00
2018-07-04T12:14:26.185Z,4.37
2018-07-04T12:16:54.087Z,4.50
2018-07-04T12:19:22.146Z,3.90
2018-07-04T12:21:50.074Z,4.50
2018-07-04T12:24:18.061Z,4.27
2018-07-04T12:26:46.074Z,4.73
2018-07-04T12:29:13.857Z,4.70
2018-07-04T12:31:47.315Z,4.57
2018-07-04T12:34:20.774Z,4.27
2018-07-04T12:36:54.167Z,4.30
2018-07-04T12:42:17.603Z,6.20
2018-07-04T12:44:46.684Z,9.57
2018-07-04T12:47:14.670Z,6.50
2018-07-04T12:49:42.627Z,5.90
2018-07-04T12:52:16.168Z,4.80
2018-07-04T12:54:51.360Z,5.40
2018-07-04T12:57:32.863Z,5.47
2018-07-04T13:00:13.114Z,5.37
2018-07-04T13:02:53.984Z,4.92
2018-07-04T13:05:35.651Z,5.30
2018-07-04T13:08:15.950Z,5.77
2018-07-04T13:11:00.320Z,5.60
2018-07-04T13:13:43.302Z,5.00
2018-07-04T13:16:24.808Z,5.30
2018-07-04T13:19:05.106Z,5.40
2018-07-04T13:21:46.862Z,5.20
2018-07-04T13:24:27.158Z,4.43
2018-07-04T13:27:08.094Z,4.03
2018-07-04T13:29:49.142Z,3.80
2018-07-04T13:32:30.166Z,3.73
2018-07-04T13:35:11.693Z,3.10
2018-07-04T13:37:52.559Z,3.85
2018-07-04T13:40:33.380Z,3.60
2018-07-04T13:43:15.387Z,3.90
2018-07-04T13:45:55.616Z,4.42
2018-07-04T13:48:36.819Z,4.30
2018-07-04T13:51:16.964Z,4.10
2018-07-04T13:53:57.376Z,4.07
2018-07-04T13:56:38.674Z,4.40
2018-07-04T13:59:19.927Z,3.92
2018-07-04T14:02:00.040Z,4.33
2018-07-04T14:04:40.238Z,4.00
2018-07-04T14:07:20.366Z,3.60
2018-07-04T14:10:00.621Z,3.33
2018-07-04T14:12:40.559Z,3.33
2018-07-04T14:15:20.668Z,3.27
2018-07-04T14:18:00.927Z,3.20
2018-07-04T14:20:41.116Z,3.60
2018-07-04T14:23:21.194Z,3.85
2018-07-04T14:26:01.193Z,4.23
2018-07-04T14:28:42.574Z,5.00
2018-07-04T14:31:22.832Z,4.37
2018-07-04T14:34:03.940Z,5.03
2018-07-04T14:36:46.219Z,5.30
2018-07-04T14:39:27.204Z,5.50
2018-07-04T14:42:08.699Z,5.40
2018-07-04T14:44:49.935Z,4.93
2018-07-04T14:47:30.075Z,5.27
2018-07-04T14:50:11.426Z,4.67
2018-07-04T14:52:52.597Z,4.87
2018-07-04T14:55:33.343Z,4.33
2018-07-04T14:58:14.964Z,4.30
2018-07-04T15:00:56.184Z,4.83
2018-07-04T15:03:37.735Z,4.33
2018-07-04T15:06:18.998Z,4.20
2018-07-04T15:09:00.506Z,3.47
2018-07-04T15:11:41.784Z,4.60
2018-07-04T15:14:23.179Z,3.97
2018-07-04T15:17:04.069Z,3.90
2018-07-04T15:19:44.801Z,3.63
2018-07-04T15:22:26.044Z,3.90
2018-07-04T15:25:07.413Z,3.40
2018-07-04T15:27:48.108Z,3.90
2018-07-04T15:30:29.533Z,3.98
2018-07-04T15:33:09.803Z,4.10
2018-07-04T15:35:50.173Z,3.80
2018-07-04T15:38:31.466Z,3.30
2018-07-04T15:41:13.026Z,3.70
2018-07-04T15:43:54.351Z,3.57
2018-07-04T15:46:35.390Z,3.20
2018-07-04T15:49:18.236Z,3.47
2018-07-04T15:51:59.641Z,3.58
2018-07-04T15:54:41.195Z,3.43
2018-07-04T15:57:22.567Z,3.23
2018-07-04T16:00:03.794Z,3.02
2018-07-04T16:02:45.743Z,3.20
2018-07-04T16:05:27.010Z,3.40
2018-07-04T16:11:18.417Z,3.63
2018-07-04T16:13:59.954Z,3.80
2018-07-04T16:16:41.355Z,3.10
2018-07-04T16:19:22.321Z,2.80
2018-07-04T16:22:03.118Z,3.15
2018-07-04T16:24:44.361Z,3.10
2018-07-04T16:27:26.113Z,3.20
2018-07-04T16:30:07.221Z,2.60
2018-07-04T16:32:48.115Z,3.00
2018-07-04T16:35:29.456Z,3.35
2018-07-04T16:38:10.580Z,2.70
2018-07-04T16:40:51.556Z,2.40
2018-07-04T16:43:32.846Z,2.97
2018-07-04T16:46:14.328Z,2.37
2018-07-04T16:48:55.338Z,2.57
2018-07-04T16:51:36.686Z,2.67
2018-07-04T16:54:17.913Z,2.70
2018-07-04T16:56:59.037Z,2.45
2018-07-04T16:59:40.020Z,2.63
2018-07-04T17:02:20.439Z,2.70
2018-07-04T17:05:01.822Z,3.83
2018-07-04T17:07:42.952Z,2.60
2018-07-04T17:10:24.165Z,2.75
2018-07-04T17:13:04.868Z,4.53
2018-07-04T17:15:47.059Z,3.47
2018-07-04T17:18:28.485Z,2.80
2018-07-04T17:21:09.150Z,2.33
2018-07-04T17:23:50.685Z,2.30
2018-07-04T17:26:31.857Z,2.77
2018-07-04T17:29:13.222Z,2.70
2018-07-04T17:31:53.988Z,2.52
2018-07-04T17:34:34.745Z,2.87
2018-07-04T17:37:15.317Z,2.23
2018-07-04T17:39:56.691Z,2.85
2018-07-04T17:42:38.014Z,2.40
2018-07-04T17:45:19.438Z,2.23
2018-07-04T17:48:00.853Z,2.27
2018-07-04T17:50:42.604Z,2.30
2018-07-04T17:53:24.075Z,2.00
2018-07-04T17:56:07.051Z,1.90
2018-07-04T17:58:47.748Z,2.43
2018-07-04T18:01:29.538Z,2.25
2018-07-04T18:04:11.213Z,2.17
2018-07-04T18:06:52.380Z,2.40
2018-07-04T18:09:33.428Z,2.10
2018-07-04T18:12:14.757Z,2.20
2018-07-04T18:14:56.191Z,2.00
2018-07-04T18:17:37.732Z,2.20
2018-07-04T18:20:18.673Z,3.60
2018-07-04T18:23:00.084Z,3.73
2018-07-04T18:25:41.467Z,3.20
2018-07-04T18:28:22.439Z,2.93
2018-07-04T18:31:03.904Z,3.60
2018-07-04T18:33:45.113Z,3.50
2018-07-04T18:36:26.492Z,3.33
2018-07-04T18:39:07.577Z,3.67
2018-07-04T18:41:48.507Z,3.53
2018-07-04T18:44:29.791Z,3.90
2018-07-04T18:47:10.749Z,3.63
2018-07-04T18:49:51.882Z,3.60
2018-07-04T18:52:33.125Z,3.40
2018-07-04T18:55:13.787Z,3.50
2018-07-04T18:57:55.184Z,3.22
2018-07-04T19:00:36.463Z,4.00
2018-07-04T19:03:17.573Z,5.13
2018-07-04T19:05:58.483Z,4.47
2018-07-04T19:08:39.794Z,3.87
2018-07-04T19:11:20.510Z,3.80
2018-07-04T19:14:01.876Z,4.15
2018-07-04T19:16:43.121Z,3.60
2018-07-04T19:19:24.514Z,4.10
2018-07-04T19:22:05.872Z,3.50
2018-07-04T19:24:47.447Z,4.17
2018-07-04T19:27:28.792Z,3.50
2018-07-04T19:30:09.635Z,4.33
2018-07-04T19:32:51.419Z,3.93
2018-07-04T19:35:32.809Z,3.70
2018-07-04T19:38:14.172Z,3.70
2018-07-04T19:40:55.761Z,4.30
2018-07-04T19:43:36.661Z,5.00
2018-07-04T19:46:18.467Z,4.95
2018-07-04T19:48:59.411Z,5.10
2018-07-04T19:51:40.470Z,4.97
2018-07-04T19:54:21.694Z,4.40
2018-07-04T19:57:03.257Z,4.80
2018-07-04T19:59:44.162Z,5.00
2018-07-04T20:02:25.412Z,6.70
2018-07-04T20:05:06.926Z,7.60
2018-07-04T20:07:47.946Z,5.83
2018-07-04T20:10:29.197Z,5.77
2018-07-04T20:13:10.562Z,5.60
2018-07-04T20:15:51.550Z,5.50
2018-07-04T20:18:32.610Z,6.07
2018-07-04T20:21:13.590Z,6.20
2018-07-04T20:23:54.625Z,5.33
2018-07-04T20:26:36.008Z,7.00
2018-07-04T20:29:16.973Z,7.47
2018-07-04T20:31:58.310Z,7.60
2018-07-04T20:34:39.081Z,6.87
2018-07-04T20:37:20.240Z,5.60
2018-07-04T20:40:00.954Z,5.33
2018-07-04T20:42:41.785Z,5.50
2018-07-04T20:45:23.087Z,5.23
2018-07-04T20:48:04.627Z,5.25
2018-07-04T20:50:46.012Z,5.40
2018-07-04T20:53:27.229Z,5.70
2018-07-04T20:56:07.921Z,5.87
2018-07-04T20:58:49.204Z,5.43
2018-07-04T21:01:30.738Z,5.50
2018-07-04T21:04:12.109Z,5.70
2018-07-04T21:06:53.123Z,5.67
2018-07-04T21:09:34.726Z,5.37
2018-07-04T21:12:15.868Z,5.37
2018-07-04T21:14:56.793Z,5.30
2018-07-04T21:17:37.673Z,4.80
2018-07-04T21:20:19.190Z,4.33
2018-07-04T21:23:00.466Z,4.63
2018-07-04T21:25:41.966Z,4.63
2018-07-04T21:28:22.936Z,5.00
2018-07-04T21:31:04.154Z,5.00
2018-07-04T21:33:44.832Z,4.50
2018-07-04T21:36:26.152Z,5.00
2018-07-04T21:39:07.540Z,4.53
2018-07-04T21:41:49.054Z,4.87
2018-07-04T21:44:30.029Z,4.80
2018-07-04T21:47:11.413Z,5.10
2018-07-04T21:49:52.793Z,4.97
2018-07-04T21:52:34.035Z,5.30
2018-07-04T21:55:15.402Z,4.87
2018-07-04T21:57:56.545Z,4.43
2018-07-04T22:00:37.502Z,4.47
2018-07-04T22:03:18.450Z,5.17
2018-07-04T22:05:59.878Z,4.60
2018-07-04T22:08:40.585Z,5.30
2018-07-04T22:11:21.823Z,5.40
2018-07-04T22:14:03.029Z,4.13
2018-07-04T22:16:44.496Z,4.87
2018-07-04T22:19:25.821Z,5.53
2018-07-04T22:22:06.655Z,4.20
2018-07-04T22:24:47.519Z,5.57
2018-07-04T22:27:28.495Z,5.53
2018-07-04T22:30:09.663Z,5.77
2018-07-04T22:32:51.255Z,4.73
2018-07-04T22:35:32.482Z,4.30
2018-07-04T22:38:13.515Z,5.20
2018-07-04T22:40:54.891Z,4.67
2018-07-04T22:43:35.812Z,5.07
2018-07-04T22:46:16.846Z,4.50
2018-07-04T22:48:57.926Z,5.27
2018-07-04T22:51:38.838Z,4.50
2018-07-04T22:54:21.370Z,4.40
2018-07-04T22:57:02.851Z,4.57
2018-07-04T22:59:43.876Z,5.00
2018-07-04T23:02:25.155Z,5.10
2018-07-04T23:05:06.071Z,4.73
2018-07-04T23:07:47.223Z,4.50
2018-07-04T23:10:28.453Z,4.70
2018-07-04T23:13:09.406Z,5.63
2018-07-04T23:15:51.205Z,4.80
2018-07-04T23:18:32.349Z,5.73
2018-07-04T23:21:13.726Z,4.43
2018-07-04T23:23:54.984Z,4.33
2018-07-04T23:26:36.336Z,4.58
2018-07-04T23:29:17.474Z,4.13
2018-07-04T23:31:59.272Z,5.10
2018-07-04T23:34:40.062Z,4.63
2018-07-04T23:37:21.125Z,4.60
2018-07-04T23:40:02.613Z,4.55
2018-07-04T23:42:43.907Z,5.33
2018-07-04T23:45:25.257Z,4.87
2018-07-04T23:48:06.245Z,4.60
2018-07-04T23:50:47.329Z,4.93
2018-07-04T23:53:28.638Z,4.45
2018-07-04T23:56:09.977Z,5.93
2018-07-04T23:58:52.304Z,8.63
